Time;durP1;ratioP1;P1;durP2;ratioP2;P2;SDS_P1;SDS_P2;PMS_P1;PMS_P2;Temp;Humidity;BMP_temperature;BMP_pressure;BME280_temperature;BME280_humidity;BME280_pressure;Samples;Min_cycle;Max_cycle;Signal;HPM_P1;HPM_P2
2021/12/06 00:01:40;;;;;;;17.70;12.20;;;;;;;2.72;72.43;99361.15;24545;1358;3026401;-74
2021/12/06 00:04:09;;;;;;;19.10;11.90;;;;;;;2.60;73.09;99362.87;24560;1360;3052480;-72
2021/12/06 00:06:40;;;;;;;20.40;13.00;;;;;;;2.57;73.39;99360.38;24468;1356;3026783;-71
2021/12/06 00:09:16;;;;;;;20.20;11.10;;;;;;;2.50;73.86;99360.05;24466;1355;3048157;-70
2021/12/06 00:11:56;;;;;;;18.70;12.10;;;;;;;3.02;72.30;99356.39;24510;1361;3055042;-72
2021/12/06 00:14:29;;;;;;;19.30;11.70;;;;;;;3.60;70.28;99352.27;24309;1356;3052882;-67
2021/12/06 00:17:02;;;;;;;19.80;12.40;;;;;;;3.74;69.35;99353.54;24474;1355;3058792;-73
2021/12/06 00:19:31;;;;;;;21.20;12.80;;;;;;;3.56;69.66;99350.15;24526;1359;3026277;-70
2021/12/06 00:22:01;;;;;;;18.60;12.90;;;;;;;3.40;70.22;99348.79;24444;1354;3026666;-65
2021/12/06 00:24:30;;;;;;;20.10;13.60;;;;;;;3.25;70.80;99348.60;24487;1361;3028947;-69
2021/12/06 00:26:59;;;;;;;19.80;12.90;;;;;;;3.11;71.27;99347.30;24475;1353;3027242;-71
2021/12/06 00:29:28;;;;;;;20.50;13.10;;;;;;;3.03;71.40;99342.88;24461;1354;3052514;-67
2021/12/06 00:31:57;;;;;;;18.60;12.50;;;;;;;2.93;71.93;99345.45;24531;1362;3026563;-66
2021/12/06 00:34:31;;;;;;;19.60;12.50;;;;;;;2.84;72.12;99347.95;24432;1356;3048843;-70
2021/12/06 00:37:16;;;;;;;19.70;12.60;;;;;;;2.74;72.42;99352.95;24553;1358;3055543;-75
2021/12/06 00:39:50;;;;;;;20.40;12.30;;;;;;;2.66;73.06;99354.23;24490;1355;3054193;-71
2021/12/06 00:42:21;;;;;;;21.20;13.40;;;;;;;2.59;73.15;99352.70;24452;1361;3070108;-75
2021/12/06 00:44:50;;;;;;;22.30;13.70;;;;;;;2.51;73.42;99352.08;24481;1355;3026455;-70
2021/12/06 00:47:20;;;;;;;19.30;11.10;;;;;;;2.47;74.20;99349.78;24483;1358;3026478;-70
2021/12/06 00:49:50;;;;;;;19.40;11.80;;;;;;;3.07;72.50;99348.28;24394;1355;3028638;-75
2021/12/06 00:52:19;;;;;;;19.50;12.00;;;;;;;3.70;70.24;99345.02;24462;1359;3048729;-71
2021/12/06 00:54:48;;;;;;;18.80;12.60;;;;;;;3.82;69.24;99347.73;24447;1361;3027469;-73
2021/12/06 00:57:17;;;;;;;20.40;12.30;;;;;;;3.75;69.30;99345.54;24487;1357;3027826;-72
2021/12/06 00:59:47;;;;;;;22.40;14.00;;;;;;;3.62;69.48;99347.01;24474;1355;3048818;-67
2021/12/06 01:02:16;;;;;;;18.30;12.50;;;;;;;3.44;70.19;99349.16;24436;1359;3026689;-65
2021/12/06 01:04:47;;;;;;;19.70;12.10;;;;;;;3.33;70.56;99345.91;24436;1359;3068440;-71
2021/12/06 01:07:16;;;;;;;18.30;11.90;;;;;;;3.22;70.68;99346.95;24512;1355;3027887;-71
2021/12/06 01:09:45;;;;;;;18.50;11.80;;;;;;;3.11;70.97;99347.30;24465;1358;3026614;-72
2021/12/06 01:12:14;;;;;;;18.30;12.10;;;;;;;3.02;71.33;99344.81;24442;1361;3067187;-67
2021/12/06 01:14:43;;;;;;;20.50;12.00;;;;;;;2.90;71.99;99344.14;24435;1361;3026249;-65
2021/12/06 01:17:12;;;;;;;18.80;11.90;;;;;;;2.84;72.23;99346.42;24483;1355;3050418;-67
2021/12/06 01:19:41;;;;;;;17.70;12.00;;;;;;;2.74;72.66;99346.71;24455;1363;3028509;-69
2021/12/06 01:25:05;;;;;;;17.40;10.70;;;;;;;2.69;72.92;99336.16;24464;1355;3051053;-69
2021/12/06 01:30:23;;;;;;;16.50;10.20;;;;;;;3.88;69.55;99322.89;24490;1357;3028093;-71
2021/12/06 01:41:04;;;;;;;18.70;11.60;;;;;;;3.44;69.96;99318.51;24513;1352;3049967;-69
2021/12/06 01:43:34;;;;;;;17.20;11.20;;;;;;;3.30;70.44;99317.44;24428;1355;3026439;-68
2021/12/06 01:46:05;;;;;;;19.00;11.70;;;;;;;3.13;71.06;99317.27;24510;1361;3028801;-67
2021/12/06 01:48:35;;;;;;;18.30;11.50;;;;;;;3.04;71.37;99314.45;24478;1360;3027107;-70
2021/12/06 01:51:04;;;;;;;16.60;11.30;;;;;;;2.93;71.92;99311.86;24456;1355;3026488;-67
2021/12/06 01:53:33;;;;;;;20.50;12.20;;;;;;;2.90;71.90;99314.73;24476;1361;3049535;-71
2021/12/06 01:56:02;;;;;;;18.20;11.50;;;;;;;2.81;72.35;99318.66;24474;1355;3026375;-67
2021/12/06 01:58:31;;;;;;;18.50;10.70;;;;;;;2.73;72.80;99321.15;24436;1362;3052041;-70
2021/12/06 02:01:00;;;;;;;15.80;10.70;;;;;;;2.70;72.58;99322.10;24421;1361;3026805;-68
2021/12/06 02:03:31;;;;;;;13.10;9.00;;;;;;;2.71;72.69;99322.25;24408;1361;3052000;-69
2021/12/06 02:06:00;;;;;;;16.30;10.70;;;;;;;3.27;71.39;99313.52;24501;1356;3027018;-68
2021/12/06 02:08:42;;;;;;;17.00;10.50;;;;;;;3.89;68.94;99312.65;24510;1358;3058965;-67
2021/12/06 02:11:12;;;;;;;14.80;10.20;;;;;;;3.99;68.45;99314.52;24474;1357;3026537;-70
2021/12/06 02:13:49;;;;;;;15.70;10.30;;;;;;;3.86;68.66;99317.95;24474;1355;3027610;-71
2021/12/06 02:16:23;;;;;;;14.10;10.00;;;;;;;3.64;69.19;99319.92;24435;1358;3056717;-75
2021/12/06 02:19:01;;;;;;;15.50;10.20;;;;;;;3.55;69.54;99322.83;24472;1358;3070176;-73
2021/12/06 02:21:32;;;;;;;15.20;9.90;;;;;;;3.38;69.77;99329.63;24498;1357;3049543;-73
2021/12/06 02:24:05;;;;;;;14.60;9.60;;;;;;;3.27;70.11;99327.04;24489;1361;3026586;-70
2021/12/06 02:26:39;;;;;;;13.60;9.80;;;;;;;3.13;70.65;99333.21;24535;1354;3049975;-74
2021/12/06 02:29:08;;;;;;;16.30;10.10;;;;;;;3.06;71.19;99334.83;24516;1355;3026438;-70
2021/12/06 02:31:39;;;;;;;16.00;10.50;;;;;;;2.98;71.27;99347.69;24436;1358;3027433;-72
2021/12/06 02:34:08;;;;;;;17.40;10.20;;;;;;;2.98;71.45;99345.98;24482;1359;3029033;-68
2021/12/06 02:36:37;;;;;;;17.20;10.70;;;;;;;2.96;71.36;99345.36;24464;1357;3055114;-71
2021/12/06 02:39:09;;;;;;;15.70;10.80;;;;;;;2.94;71.54;99346.45;24487;1358;3026371;-69
2021/12/06 02:41:39;;;;;;;15.40;11.10;;;;;;;2.90;71.76;99348.14;24521;1357;3027479;-70
2021/12/06 02:44:11;;;;;;;15.30;10.30;;;;;;;2.84;72.10;99346.05;24471;1360;3029913;-71
2021/12/06 02:46:41;;;;;;;14.50;9.80;;;;;;;2.81;72.31;99348.06;24511;1358;3027166;-69
2021/12/06 02:49:10;;;;;;;14.10;9.20;;;;;;;2.79;72.43;99347.42;24471;1361;3026379;-75
2021/12/06 02:51:39;;;;;;;14.70;8.70;;;;;;;3.32;71.15;99339.36;24513;1361;3052633;-72
2021/12/06 02:54:10;;;;;;;15.00;9.90;;;;;;;3.95;68.75;99336.51;24441;1361;3026305;-67
2021/12/06 02:56:51;;;;;;;16.20;10.00;;;;;;;4.05;67.93;99338.77;24433;1357;3027338;-74
2021/12/06 02:59:23;;;;;;;15.40;10.30;;;;;;;3.93;68.14;99337.96;24461;1359;3055437;-72
2021/12/06 03:01:58;;;;;;;17.30;10.80;;;;;;;3.81;68.50;99333.55;24458;1362;3026563;-66
2021/12/06 03:04:27;;;;;;;14.60;11.20;;;;;;;3.58;69.44;99332.42;24478;1356;3058216;-75
2021/12/06 03:06:58;;;;;;;15.70;10.60;;;;;;;3.48;69.72;99335.53;24522;1358;3027402;-70
2021/12/06 03:09:29;;;;;;;16.90;11.70;;;;;;;3.35;70.32;99345.63;24609;1361;3051422;-68
2021/12/06 03:12:11;;;;;;;17.90;12.30;;;;;;;3.27;70.63;99350.26;24762;1361;3026894;-70
2021/12/06 03:14:43;;;;;;;18.10;10.90;;;;;;;3.22;70.74;99351.10;24764;1361;3052740;-67
2021/12/06 03:17:15;;;;;;;17.70;11.80;;;;;;;3.14;71.05;99353.26;24750;1359;3054042;-65
2021/12/06 03:19:45;;;;;;;15.90;11.10;;;;;;;3.05;71.10;99357.86;24713;1354;3026507;-70
2021/12/06 03:22:15;;;;;;;16.20;10.70;;;;;;;3.03;71.17;99367.30;24685;1359;3026337;-66
2021/12/06 03:24:45;;;;;;;16.20;11.10;;;;;;;2.96;71.18;99366.61;24695;1354;3026781;-73
2021/12/06 03:27:15;;;;;;;18.80;11.30;;;;;;;2.92;71.39;99372.83;24540;1361;3026716;-70
2021/12/06 03:29:45;;;;;;;18.30;11.60;;;;;;;2.89;71.58;99366.52;24502;1358;3029057;-68
2021/12/06 03:32:14;;;;;;;18.30;12.00;;;;;;;2.88;71.72;99366.05;24471;1362;3029226;-72
2021/12/06 03:34:43;;;;;;;18.10;11.60;;;;;;;2.88;71.76;99360.11;24471;1359;3026741;-68
2021/12/06 03:37:13;;;;;;;20.10;12.30;;;;;;;2.93;71.54;99360.32;24480;1355;3051462;-70
2021/12/06 03:39:45;;;;;;;23.40;13.70;;;;;;;2.90;71.78;99358.84;24502;1358;3026407;-68
2021/12/06 03:42:17;;;;;;;;;;;;;;;2.84;71.87;99361.64;24469;1362;3049891;-69
2021/12/06 03:44:47;;;;;;;18.90;11.80;;;;;;;2.75;72.38;99361.55;24512;1358;3026521;-65
2021/12/06 03:47:28;;;;;;;19.00;12.70;;;;;;;2.73;72.28;99358.85;24466;1358;3030391;-70
2021/12/06 03:49:58;;;;;;;17.40;9.80;;;;;;;2.80;72.51;99358.98;24442;1355;3070287;-71
2021/12/06 03:52:27;;;;;;;17.30;11.30;;;;;;;3.41;70.77;99350.13;24433;1359;3027472;-67
2021/12/06 03:54:58;;;;;;;14.80;9.80;;;;;;;4.02;68.48;99342.86;24468;1361;3026099;-69
2021/12/06 03:57:27;;;;;;;15.50;10.60;;;;;;;4.15;67.75;99339.61;24446;1362;3026927;-66
2021/12/06 03:59:56;;;;;;;19.20;11.70;;;;;;;4.01;67.80;99340.84;24398;1356;3051658;-64
2021/12/06 04:02:27;;;;;;;17.40;11.50;;;;;;;3.78;68.38;99336.77;24449;1361;3026810;-69
2021/12/06 04:04:56;;;;;;;17.90;11.70;;;;;;;3.64;69.02;99327.90;24444;1362;3026257;-72
2021/12/06 04:07:26;;;;;;;18.80;11.70;;;;;;;3.47;69.37;99334.36;24460;1358;3026818;-71
2021/12/06 04:09:56;;;;;;;16.30;10.80;;;;;;;3.35;69.83;99338.55;24415;1348;3027687;-69
2021/12/06 04:12:25;;;;;;;16.60;11.30;;;;;;;3.25;70.03;99340.45;24392;1358;3026541;-72
2021/12/06 04:14:55;;;;;;;17.90;11.90;;;;;;;3.13;70.49;99341.68;24427;1361;3058887;-70
2021/12/06 04:17:36;;;;;;;18.70;12.10;;;;;;;3.06;70.69;99348.69;24467;1363;3051850;-71
2021/12/06 04:20:06;;;;;;;17.90;10.90;;;;;;;2.98;70.95;99359.84;24432;1358;3026896;-72
2021/12/06 04:22:35;;;;;;;18.30;11.00;;;;;;;2.84;71.54;99360.06;24423;1362;3028225;-75
2021/12/06 04:25:08;;;;;;;16.50;11.50;;;;;;;2.73;71.73;99361.27;24388;1359;3026883;-77
2021/12/06 04:27:37;;;;;;;16.30;11.00;;;;;;;2.67;72.16;99359.20;24393;1364;3028551;-73
2021/12/06 04:30:07;;;;;;;19.80;12.30;;;;;;;2.65;72.24;99348.56;24430;1357;3026189;-66
2021/12/06 04:32:38;;;;;;;16.40;11.30;;;;;;;2.56;72.42;99336.20;24406;1362;3026566;-71
2021/12/06 04:35:08;;;;;;;18.90;11.60;;;;;;;2.52;72.61;99334.75;24378;1363;3026057;-71
2021/12/06 04:37:38;;;;;;;17.60;10.50;;;;;;;2.47;72.73;99333.52;24452;1364;3055153;-77
2021/12/06 04:40:08;;;;;;;17.90;11.80;;;;;;;2.34;73.21;99338.04;24424;1362;3026014;-71
2021/12/06 04:42:37;;;;;;;16.60;10.60;;;;;;;2.23;73.33;99338.52;24412;1363;3028955;-75
2021/12/06 04:45:08;;;;;;;16.90;9.50;;;;;;;2.28;73.30;99342.89;24457;1360;3027718;-66
2021/12/06 04:47:39;;;;;;;12.90;8.20;;;;;;;2.75;72.32;99334.91;24450;1360;3026608;-69
2021/12/06 04:50:09;;;;;;;14.40;9.10;;;;;;;3.32;70.10;99323.41;24448;1358;3026635;-76
2021/12/06 04:52:40;;;;;;;14.50;9.10;;;;;;;3.35;69.39;99326.96;24440;1358;3049577;-74
2021/12/06 04:55:29;;;;;;;14.50;9.90;;;;;;;3.31;69.65;99328.30;24436;1364;3026561;-71
2021/12/06 04:57:59;;;;;;;13.50;9.40;;;;;;;3.15;69.81;99331.94;24436;1363;3054819;-73
2021/12/06 05:00:42;;;;;;;16.30;10.20;;;;;;;2.92;70.34;99332.15;24417;1363;3026312;-67
2021/12/06 05:03:11;;;;;;;15.80;11.10;;;;;;;2.79;71.09;99336.16;24499;1356;3053207;-75
2021/12/06 05:05:46;;;;;;;14.60;10.20;;;;;;;2.66;71.41;99344.88;24486;1360;3026578;-71
2021/12/06 05:08:18;;;;;;;18.90;11.30;;;;;;;2.53;71.86;99340.07;24472;1357;3049987;-70
2021/12/06 05:10:47;;;;;;;19.70;12.20;;;;;;;2.43;72.26;99338.66;24502;1354;3027935;-68
2021/12/06 05:13:17;;;;;;;18.80;12.30;;;;;;;2.40;72.21;99341.14;24472;1359;3027254;-68
2021/12/06 05:15:48;;;;;;;19.10;12.10;;;;;;;2.32;72.24;99352.10;24494;1357;3027377;-74
2021/12/06 05:18:17;;;;;;;19.50;12.70;;;;;;;2.23;73.05;99363.23;24506;1356;3026007;-68
2021/12/06 05:20:46;;;;;;;20.80;12.50;;;;;;;2.30;72.58;99367.20;24500;1361;3053879;-68
2021/12/06 05:23:15;;;;;;;17.10;11.90;;;;;;;2.39;72.11;99371.95;24535;1356;3026409;-69
2021/12/06 05:25:44;;;;;;;16.40;11.40;;;;;;;2.37;71.99;99375.10;24490;1361;3027551;-73
2021/12/06 05:28:14;;;;;;;17.50;12.30;;;;;;;2.42;71.73;99372.90;24462;1361;3051956;-72
2021/12/06 05:30:45;;;;;;;21.60;13.30;;;;;;;2.35;72.06;99376.71;24456;1360;3026596;-70
2021/12/06 05:33:28;;;;;;;17.60;11.60;;;;;;;2.30;71.88;99382.91;24539;1355;3028349;-72
2021/12/06 05:36:02;;;;;;;15.60;11.20;;;;;;;2.21;72.20;99393.01;24526;1361;3055572;-73
2021/12/06 05:38:31;;;;;;;13.80;10.00;;;;;;;2.25;71.85;99400.36;24553;1354;3028169;-78
2021/12/06 05:40:59;;;;;;;14.20;11.00;;;;;;;2.35;71.37;99397.47;24477;1355;3028522;-74
2021/12/06 05:43:28;;;;;;;14.80;9.90;;;;;;;2.36;71.30;99397.27;24457;1355;3051264;-69
2021/12/06 05:45:58;;;;;;;14.80;11.10;;;;;;;2.29;71.47;99395.89;24452;1355;3026602;-77
2021/12/06 05:48:27;;;;;;;13.60;9.80;;;;;;;2.29;71.86;99391.94;24435;1360;3048560;-75
2021/12/06 05:50:56;;;;;;;16.40;11.20;;;;;;;2.24;71.78;99383.95;24431;1350;3030576;-74
2021/12/06 05:53:25;;;;;;;15.80;10.90;;;;;;;2.27;71.90;99389.59;24447;1357;3070280;-75
2021/12/06 05:55:54;;;;;;;17.90;9.80;;;;;;;2.30;71.84;99385.35;24539;1358;3026861;-71
2021/12/06 05:58:26;;;;;;;14.20;9.20;;;;;;;2.85;70.48;99385.13;24444;1359;3053163;-70
2021/12/06 06:00:56;;;;;;;13.10;9.50;;;;;;;3.35;68.41;99374.73;24461;1355;3029674;-71
2021/12/06 06:03:25;;;;;;;17.30;10.60;;;;;;;3.54;67.79;99375.00;24508;1354;3026411;-70
2021/12/06 06:05:54;;;;;;;14.40;11.10;;;;;;;3.52;67.97;99380.61;24475;1359;3026556;-66
2021/12/06 06:08:25;;;;;;;17.30;11.30;;;;;;;3.39;68.22;99384.30;24500;1359;3070405;-64
2021/12/06 06:10:54;;;;;;;18.30;11.60;;;;;;;3.19;68.80;99394.64;24447;1354;3026974;-73
2021/12/06 06:13:40;;;;;;;17.30;11.50;;;;;;;3.03;69.24;99390.46;24460;1359;3055413;-77
2021/12/06 06:16:09;;;;;;;18.00;11.10;;;;;;;2.83;69.79;99387.63;24524;1358;3027564;-75
2021/12/06 06:18:38;;;;;;;17.10;11.80;;;;;;;2.82;70.16;99384.89;24427;1355;3048058;-72
2021/12/06 06:21:07;;;;;;;18.40;12.50;;;;;;;2.87;69.98;99385.77;24459;1357;3026356;-69
2021/12/06 06:23:36;;;;;;;15.20;11.20;;;;;;;2.76;70.35;99395.26;24552;1358;3071215;-70
2021/12/06 06:26:05;;;;;;;13.80;10.30;;;;;;;2.70;70.36;99400.80;24442;1361;3026703;-75
2021/12/06 06:28:34;;;;;;;15.90;10.30;;;;;;;2.70;70.55;99406.85;24450;1356;3051249;-68
2021/12/06 06:31:03;;;;;;;14.80;9.50;;;;;;;2.72;70.55;99416.13;24438;1355;3028974;-68
2021/12/06 06:33:34;;;;;;;18.20;11.60;;;;;;;2.57;71.23;99420.02;24453;1354;3055175;-68
2021/12/06 06:36:03;;;;;;;16.60;10.90;;;;;;;2.52;71.27;99425.70;24498;1358;3026148;-67
2021/12/06 06:38:32;;;;;;;16.60;11.50;;;;;;;2.57;71.19;99431.60;24500;1358;3048963;-74
2021/12/06 06:41:02;;;;;;;15.80;11.00;;;;;;;2.59;71.12;99433.46;24516;1355;3026826;-67
2021/12/06 06:43:31;;;;;;;16.10;10.60;;;;;;;2.62;71.26;99432.52;24474;1354;3054563;-77
2021/12/06 06:46:00;;;;;;;15.20;10.40;;;;;;;2.65;71.38;99436.89;24523;1355;3026256;-67
2021/12/06 06:48:29;;;;;;;13.10;9.70;;;;;;;2.73;70.86;99433.24;24479;1357;3050908;-79
2021/12/06 06:50:58;;;;;;;15.80;11.50;;;;;;;2.76;70.94;99429.33;24430;1359;3028653;-77
2021/12/06 06:53:27;;;;;;;18.70;10.80;;;;;;;2.74;70.97;99431.48;24456;1355;3052153;-72
2021/12/06 06:55:57;;;;;;;16.10;11.10;;;;;;;2.75;70.97;99434.72;24445;1352;3028302;-69
2021/12/06 06:58:26;;;;;;;15.90;10.90;;;;;;;2.86;70.54;99434.07;24505;1358;3029423;-73
2021/12/06 07:00:55;;;;;;;14.10;9.60;;;;;;;2.82;70.42;99439.18;24470;1355;3026549;-68
2021/12/06 07:03:24;;;;;;;15.70;10.10;;;;;;;2.82;70.47;99443.15;24453;1354;3053812;-68
2021/12/06 07:05:53;;;;;;;13.80;9.30;;;;;;;2.84;70.39;99444.50;24499;1358;3031588;-73
2021/12/06 07:08:22;;;;;;;14.50;9.80;;;;;;;2.88;70.06;99443.86;24413;1354;3028567;-69
2021/12/06 07:10:52;;;;;;;13.70;9.00;;;;;;;2.87;70.00;99443.37;24443;1355;3053113;-75
2021/12/06 07:13:22;;;;;;;13.90;9.60;;;;;;;2.85;70.15;99448.63;24536;1358;3026731;-69
2021/12/06 07:15:52;;;;;;;13.50;9.60;;;;;;;2.91;69.97;99445.50;24448;1362;3027583;-73
2021/12/06 07:18:27;;;;;;;14.10;8.80;;;;;;;2.91;69.88;99445.67;24494;1358;3055285;-71
2021/12/06 07:20:56;;;;;;;11.00;7.40;;;;;;;2.89;69.83;99442.63;24479;1359;3026452;-70
2021/12/06 07:23:25;;;;;;;14.00;9.70;;;;;;;2.88;69.69;99444.20;24423;1354;3048700;-73
2021/12/06 07:25:54;;;;;;;13.30;8.60;;;;;;;2.81;69.96;99441.83;24549;1358;3029642;-76
2021/12/06 07:28:23;;;;;;;18.30;10.00;;;;;;;2.78;70.10;99441.39;24449;1357;3026734;-71
2021/12/06 07:30:52;;;;;;;16.70;10.50;;;;;;;2.73;70.52;99439.30;24451;1358;3048762;-69
2021/12/06 07:33:28;;;;;;;16.20;11.00;;;;;;;2.75;70.26;99438.36;24471;1359;3055635;-70
2021/12/06 07:35:57;;;;;;;16.80;10.00;;;;;;;2.73;70.18;99440.33;24432;1354;3026086;-75
2021/12/06 07:38:26;;;;;;;16.20;10.60;;;;;;;2.83;70.28;99447.10;24543;1355;3027512;-72
2021/12/06 07:40:58;;;;;;;17.30;10.50;;;;;;;2.77;70.49;99456.97;24440;1354;3056165;-74
2021/12/06 07:43:28;;;;;;;15.50;10.80;;;;;;;2.90;70.26;99458.52;24516;1355;3026911;-68
2021/12/06 07:45:57;;;;;;;16.80;9.50;;;;;;;2.95;70.12;99452.64;24450;1354;3026912;-76
2021/12/06 07:48:26;;;;;;;12.50;8.10;;;;;;;3.36;68.95;99440.15;24466;1352;3052306;-69
2021/12/06 07:50:55;;;;;;;13.30;8.90;;;;;;;4.09;66.69;99440.04;24559;1355;3027882;-74
2021/12/06 07:53:24;;;;;;;14.90;10.00;;;;;;;4.34;65.92;99432.74;24397;1356;3049807;-74
2021/12/06 07:55:53;;;;;;;15.60;10.50;;;;;;;4.20;66.01;99437.05;24483;1355;3026437;-70
2021/12/06 07:58:22;;;;;;;16.20;10.30;;;;;;;3.99;66.32;99440.73;24478;1354;3058437;-66
2021/12/06 08:00:52;;;;;;;17.60;11.30;;;;;;;3.91;66.59;99435.09;24454;1360;3027200;-75
2021/12/06 08:03:22;;;;;;;16.80;11.00;;;;;;;3.85;67.03;99439.64;24519;1355;3026437;-71
2021/12/06 08:05:52;;;;;;;18.20;11.80;;;;;;;3.68;67.48;99434.64;24463;1354;3026320;-70
2021/12/06 08:08:27;;;;;;;20.60;12.20;;;;;;;3.63;67.64;99433.92;24502;1357;3027156;-75
2021/12/06 08:10:58;;;;;;;18.70;10.80;;;;;;;3.59;68.03;99426.27;24485;1354;3049525;-71
2021/12/06 08:13:29;;;;;;;18.30;12.20;;;;;;;3.58;68.20;99421.45;24256;1354;3339455;-74
2021/12/06 08:16:01;;;;;;;16.70;11.00;;;;;;;3.45;68.38;99423.42;24557;1358;3026313;-68
2021/12/06 08:22:24;;;;;;;17.10;11.80;;;;;;;3.39;68.69;99413.77;20160;1356;3058761;-70
2021/12/06 08:24:53;;;;;;;18.80;12.60;;;;;;;3.36;68.85;99405.88;24510;1356;3029067;-72
2021/12/06 08:40:28;;;;;;;15.60;10.80;;;;;;;3.20;69.42;99398.07;17011;1367;3061586;-76
2021/12/06 08:42:57;;;;;;;18.40;10.80;;;;;;;3.28;69.35;99398.34;24431;1361;3026691;-69
2021/12/06 08:45:27;;;;;;;19.20;13.10;;;;;;;3.25;69.38;99400.16;24432;1361;3026886;-75
2021/12/06 08:47:56;;;;;;;17.50;11.60;;;;;;;3.25;69.45;99402.09;24494;1360;3050857;-71
2021/12/06 08:50:26;;;;;;;17.90;12.50;;;;;;;3.30;69.40;99391.70;24401;1360;3027065;-74
2021/12/06 08:53:51;;;;;;;26.30;12.70;;;;;;;3.31;69.67;99391.67;17637;1360;3052486;-72
2021/12/06 08:56:56;;;;;;;17.40;10.70;;;;;;;3.40;69.48;99391.04;15956;1363;3060277;-73
2021/12/06 08:59:26;;;;;;;17.10;11.50;;;;;;;3.45;69.03;99393.11;24454;1360;3027159;-78
2021/12/06 09:01:56;;;;;;;16.70;9.80;;;;;;;3.47;69.09;99390.63;24413;1360;3026658;-75
2021/12/06 09:04:27;;;;;;;17.40;11.00;;;;;;;3.49;68.93;99395.41;24486;1360;3053061;-73
2021/12/06 09:06:58;;;;;;;19.40;11.10;;;;;;;3.61;68.66;99386.70;24455;1360;3027395;-70
2021/12/06 09:09:30;;;;;;;20.50;12.30;;;;;;;3.76;68.53;99385.34;24484;1354;3049969;-72
2021/12/06 09:11:59;;;;;;;18.90;11.50;;;;;;;3.95;68.42;99382.42;24514;1361;3030040;-76
2021/12/06 09:14:29;;;;;;;19.70;12.30;;;;;;;3.97;68.35;99378.06;24464;1364;3071090;-69
2021/12/06 09:16:58;;;;;;;21.80;13.20;;;;;;;4.08;68.25;99376.45;24452;1358;3026681;-78
2021/12/06 09:19:26;;;;;;;16.00;11.30;;;;;;;4.15;67.65;99376.90;24490;1354;3052980;-70
2021/12/06 09:21:55;;;;;;;19.20;12.90;;;;;;;4.26;67.61;99377.71;24523;1352;3026974;-75
2021/12/06 09:24:24;;;;;;;19.20;12.80;;;;;;;4.36;67.22;99372.33;24507;1358;3053158;-74
2021/12/06 09:26:53;;;;;;;17.50;11.80;;;;;;;4.25;66.55;99372.71;24542;1352;3026880;-69
2021/12/06 09:29:25;;;;;;;17.50;12.00;;;;;;;4.31;66.57;99373.38;24545;1358;3051220;-70
2021/12/06 09:31:55;;;;;;;16.60;11.60;;;;;;;4.43;66.47;99376.60;24578;1354;3026552;-71
2021/12/06 09:36:26;;;;;;;21.20;12.60;;;;;;;4.39;66.55;99372.23;30926;1361;3028539;-78
2021/12/06 09:38:57;;;;;;;21.20;16.60;;;;;;;4.56;66.00;99375.74;24546;1356;3026534;-68
2021/12/06 09:41:27;;;;;;;15.90;12.00;;;;;;;4.66;64.82;99371.20;24538;1361;3026335;-72
2021/12/06 09:43:58;;;;;;;16.20;11.40;;;;;;;4.43;65.37;99383.34;24431;1365;3051362;-76
2021/12/06 09:46:29;;;;;;;19.70;12.50;;;;;;;4.23;65.80;99379.55;24523;1357;3027331;-74
2021/12/06 09:48:58;;;;;;;17.00;11.60;;;;;;;4.10;66.58;99381.92;24397;1352;3177362;-70
2021/12/06 09:51:27;;;;;;;16.90;11.80;;;;;;;4.19;66.73;99379.71;24497;1356;3026455;-73
2021/12/06 09:53:57;;;;;;;19.60;11.70;;;;;;;4.21;66.75;99379.30;24554;1354;3054522;-71
2021/12/06 09:56:29;;;;;;;21.10;13.20;;;;;;;4.22;66.89;99377.00;24562;1354;3027422;-73
2021/12/06 09:58:59;;;;;;;18.60;12.10;;;;;;;4.15;67.03;99375.69;24622;1357;3027278;-75
2021/12/06 10:01:34;;;;;;;17.00;10.90;;;;;;;4.14;67.41;99373.83;24519;1357;3026400;-73
2021/12/06 10:04:06;;;;;;;16.40;11.40;;;;;;;4.12;67.13;99374.73;24528;1354;3052219;-71
2021/12/06 10:06:35;;;;;;;17.00;10.90;;;;;;;4.13;67.07;99371.58;24525;1354;3027011;-71
2021/12/06 10:09:06;;;;;;;14.70;10.30;;;;;;;4.11;67.25;99361.80;24543;1354;3026557;-70
2021/12/06 10:14:27;;;;;;;15.70;10.00;;;;;;;4.10;67.21;99356.08;25159;1349;3050731;-68
2021/12/06 10:17:02;;;;;;;14.70;9.60;;;;;;;4.21;67.00;99351.38;24638;1361;3028414;-67
2021/12/06 10:19:35;;;;;;;15.10;9.90;;;;;;;4.17;67.38;99351.86;24423;1360;3051763;-68
2021/12/06 10:22:05;;;;;;;16.60;10.20;;;;;;;4.16;67.43;99355.71;24414;1363;3026851;-70
2021/12/06 10:24:35;;;;;;;16.30;10.00;;;;;;;4.23;67.39;99358.23;24455;1364;3069485;-75
2021/12/06 10:27:12;;;;;;;14.90;9.90;;;;;;;4.34;67.03;99349.84;24472;1357;3026397;-72
2021/12/06 10:29:48;;;;;;;16.90;10.20;;;;;;;4.41;66.87;99338.49;24490;1360;3051041;-69
2021/12/06 10:32:20;;;;;;;14.00;9.30;;;;;;;4.55;66.75;99345.11;24924;1360;3070241;-72
2021/12/06 10:34:52;;;;;;;12.70;9.30;;;;;;;4.53;66.70;99347.75;24466;1367;3026348;-69
2021/12/06 10:37:39;;;;;;;15.10;8.70;;;;;;;4.57;66.36;99344.14;24457;1361;3028228;-68
2021/12/06 10:40:10;;;;;;;12.10;8.60;;;;;;;4.58;66.28;99343.60;24462;1361;3051370;-70
2021/12/06 10:42:40;;;;;;;17.20;10.00;;;;;;;4.66;66.18;99340.15;24448;1360;3028127;-70
2021/12/06 10:45:10;;;;;;;15.80;10.40;;;;;;;4.74;66.20;99337.27;24399;1368;3026664;-72
2021/12/06 10:47:39;;;;;;;14.00;10.80;;;;;;;4.73;66.34;99337.47;24466;1363;3031036;-69
2021/12/06 10:50:18;;;;;;;16.50;10.20;;;;;;;4.80;66.10;99334.75;24460;1363;3026437;-71
2021/12/06 10:52:51;;;;;;;15.60;10.30;;;;;;;4.77;66.01;99335.04;24476;1361;3068320;-67
2021/12/06 10:55:24;;;;;;;13.80;9.70;;;;;;;4.83;66.03;99329.95;24439;1367;3048943;-71
2021/12/06 10:57:58;;;;;;;16.80;11.30;;;;;;;4.86;65.88;99331.92;24418;1364;3026883;-67
2021/12/06 11:00:48;;;;;;;15.80;10.20;;;;;;;4.88;66.10;99329.56;24503;1364;3050851;-70
2021/12/06 11:03:22;;;;;;;14.00;10.30;;;;;;;4.79;66.27;99331.52;24459;1364;3059633;-69
2021/12/06 11:05:59;;;;;;;16.30;10.30;;;;;;;4.76;66.67;99319.33;24496;1361;3051970;-72
2021/12/06 11:08:28;;;;;;;21.30;12.30;;;;;;;4.81;66.52;99323.80;24446;1364;3055525;-69
2021/12/06 11:11:00;;;;;;;16.60;11.50;;;;;;;4.84;66.56;99314.64;24341;1368;3029263;-69
2021/12/06 11:13:34;;;;;;;20.50;12.40;;;;;;;4.82;66.82;99316.27;24438;1363;3027622;-73
2021/12/06 11:16:18;;;;;;;19.50;11.10;;;;;;;4.91;66.88;99317.66;24425;1354;3049003;-67
2021/12/06 11:18:52;;;;;;;18.50;11.50;;;;;;;4.94;66.74;99323.98;24448;1360;3056877;-68
2021/12/06 11:21:23;;;;;;;15.60;10.50;;;;;;;4.93;66.84;99322.82;24457;1356;3026809;-69
2021/12/06 11:24:05;;;;;;;16.30;10.60;;;;;;;4.93;66.84;99319.68;24460;1360;3026624;-71
2021/12/06 11:26:37;;;;;;;21.40;12.50;;;;;;;4.94;66.71;99326.74;24445;1361;3049523;-69
2021/12/06 11:29:11;;;;;;;16.60;11.10;;;;;;;4.94;66.91;99326.92;24475;1360;3026494;-71
2021/12/06 11:31:43;;;;;;;15.50;10.80;;;;;;;4.94;67.00;99322.09;24506;1360;3050545;-70
2021/12/06 11:34:12;;;;;;;16.50;11.00;;;;;;;5.00;66.91;99322.17;24443;1360;3026992;-71
2021/12/06 11:36:42;;;;;;;19.70;12.70;;;;;;;5.09;66.72;99318.02;24503;1360;3026830;-71
2021/12/06 11:39:16;;;;;;;20.20;10.80;;;;;;;5.05;67.19;99312.27;24463;1363;3052560;-68
2021/12/06 11:41:48;;;;;;;17.30;10.80;;;;;;;5.06;67.12;99306.30;24527;1361;3068913;-70
2021/12/06 11:44:25;;;;;;;15.70;10.10;;;;;;;5.01;67.44;99303.37;24375;1360;3026301;-71
2021/12/06 11:47:07;;;;;;;15.90;10.80;;;;;;;5.05;67.56;99303.23;24359;1363;3055237;-72
2021/12/06 11:49:39;;;;;;;15.50;10.00;;;;;;;5.00;67.87;99307.44;24383;1362;3052381;-70
2021/12/06 11:52:11;;;;;;;18.00;11.00;;;;;;;5.04;68.06;99315.77;24422;1363;3026648;-68
2021/12/06 11:54:48;;;;;;;18.40;10.50;;;;;;;5.08;68.11;99321.54;24458;1361;3026743;-67
2021/12/06 11:57:29;;;;;;;15.50;9.90;;;;;;;5.08;68.45;99320.11;24409;1360;3052697;-68
2021/12/06 12:00:09;;;;;;;16.00;9.70;;;;;;;5.08;68.71;99321.50;24440;1360;3049688;-68
2021/12/06 12:02:44;;;;;;;13.60;10.00;;;;;;;5.19;68.47;99320.00;24433;1366;3071455;-68
2021/12/06 12:05:30;;;;;;;17.20;10.70;;;;;;;5.21;68.63;99317.15;24453;1363;3048981;-68
2021/12/06 12:08:13;;;;;;;14.50;10.10;;;;;;;5.28;68.74;99324.34;24392;1361;3055178;-68